Time;durP1;ratioP1;P1;durP2;ratioP2;P2;SDS_P1;SDS_P2;PMS_P1;PMS_P2;Temp;Humidity;BMP_temperature;BMP_pressure;BME280_temperature;BME280_humidity;BME280_pressure;Samples;Min_cycle;Max_cycle;Signal;HPM_P1;HPM_P2
2021/03/12 00:00:26;;;;;;;0.80;0.50;;;;;;;3.46;100.00;95326.06;1023978;28;20100;-52
2021/03/12 00:00:57;;;;;;;0.40;0.40;;;;;;;3.51;100.00;95337.03;1020027;28;20024;-52
2021/03/12 00:01:28;;;;;;;0.85;0.55;;;;;;;3.50;100.00;95332.75;1015971;29;20248;-51
2021/03/12 00:01:59;;;;;;;1.80;0.60;;;;;;;3.49;100.00;95328.47;1023949;28;20149;-52
2021/03/12 00:02:29;;;;;;;0.90;0.57;;;;;;;3.48;100.00;95332.81;1027882;28;20015;-51
2021/03/12 00:03:00;;;;;;;0.77;0.50;;;;;;;3.49;100.00;95339.69;1016090;29;20371;-52
2021/03/12 00:03:35;;;;;;;0.70;0.57;;;;;;;3.48;100.00;95337.16;1031686;28;20164;-51
2021/03/12 00:04:05;;;;;;;1.38;0.50;;;;;;;3.48;100.00;95340.59;1027815;28;20034;-52
2021/03/12 00:04:36;;;;;;;1.15;0.50;;;;;;;3.52;100.00;95336.09;1027926;28;20320;-52
2021/03/12 00:05:08;;;;;;;2.40;0.90;;;;;;;3.52;100.00;95333.50;1023929;29;20011;-51
2021/03/12 00:05:41;;;;;;;0.50;0.50;;;;;;;3.53;100.00;95340.38;1027739;28;20027;-52
2021/03/12 00:06:12;;;;;;;0.50;0.50;;;;;;;3.54;100.00;95349.78;1023936;29;20282;-51
2021/03/12 00:06:42;;;;;;;0.70;0.60;;;;;;;3.56;100.00;95344.53;1023943;28;20334;-52
2021/03/12 00:07:13;;;;;;;0.68;0.45;;;;;;;3.54;100.00;95341.19;1027902;28;20081;-51
2021/03/12 00:07:44;;;;;;;1.27;0.63;;;;;;;3.55;100.00;95348.88;1023859;28;20416;-51
2021/03/12 00:08:15;;;;;;;2.15;0.40;;;;;;;3.59;100.00;95349.56;1023905;29;20519;-51
2021/03/12 00:08:46;;;;;;;0.45;0.40;;;;;;;3.59;100.00;95345.22;1027997;28;20030;-51
2021/03/12 00:09:17;;;;;;;1.15;0.50;;;;;;;3.57;100.00;95331.50;1019986;28;20027;-51
2021/03/12 00:09:47;;;;;;;1.48;0.60;;;;;;;3.57;100.00;95357.41;1023776;29;20267;-52
2021/03/12 00:10:20;;;;;;;0.60;0.47;;;;;;;3.58;100.00;95340.94;1024066;29;20141;-51
2021/03/12 00:10:50;;;;;;;0.95;0.50;;;;;;;3.58;100.00;95345.28;1024025;29;20512;-51
2021/03/12 00:11:22;;;;;;;0.65;0.40;;;;;;;3.56;100.00;95339.34;1020038;29;20266;-52
2021/03/12 00:11:53;;;;;;;1.52;0.60;;;;;;;3.56;100.00;95339.34;1023808;29;20270;-51
2021/03/12 00:12:24;;;;;;;0.55;0.40;;;;;;;3.57;100.00;95344.47;1015950;29;20331;-51
2021/03/12 00:12:54;;;;;;;0.75;0.60;;;;;;;3.59;100.00;95341.78;1019955;28;20417;-51
2021/03/12 00:13:25;;;;;;;0.55;0.40;;;;;;;3.58;100.00;95340.94;1027830;28;20022;-52
2021/03/12 00:13:56;;;;;;;1.55;0.55;;;;;;;3.58;100.00;95330.56;1015758;29;20024;-51
2021/03/12 00:14:27;;;;;;;0.75;0.50;;;;;;;3.59;100.00;95336.63;1023848;29;20027;-51
2021/03/12 00:14:57;;;;;;;1.23;0.55;;;;;;;3.58;100.00;95327.97;1027872;28;20051;-51
2021/03/12 00:15:28;;;;;;;0.52;0.47;;;;;;;3.59;100.00;95327.09;1023850;28;20125;-53
2021/03/12 00:15:59;;;;;;;1.75;0.90;;;;;;;3.57;100.00;95328.09;1023858;29;20346;-52
2021/03/12 00:16:30;;;;;;;1.67;0.77;;;;;;;3.55;100.00;95333.34;1023895;29;20030;-52
2021/03/12 00:17:00;;;;;;;2.45;0.70;;;;;;;3.56;100.00;95337.59;1031954;28;20097;-50
2021/03/12 00:17:31;;;;;;;1.65;0.57;;;;;;;3.44;100.00;95309.78;1027784;28;20023;-52
2021/03/12 00:18:02;;;;;;;1.30;0.50;;;;;;;3.56;100.00;95335.00;1031693;28;20022;-51
2021/03/12 00:18:37;;;;;;;0.40;0.40;;;;;;;3.57;100.00;95328.09;1023937;29;20023;-52
2021/03/12 00:19:07;;;;;;;1.77;0.52;;;;;;;3.57;100.00;95341.03;1020037;29;20405;-50
2021/03/12 00:19:38;;;;;;;1.02;0.63;;;;;;;3.59;100.00;95344.38;1031807;28;20320;-52
2021/03/12 00:20:11;;;;;;;1.30;0.60;;;;;;;3.59;100.00;95336.63;1023833;29;20019;-52
2021/03/12 00:20:42;;;;;;;1.17;0.60;;;;;;;3.55;100.00;95342.84;1019873;29;20022;-51
2021/03/12 00:21:13;;;;;;;0.90;0.40;;;;;;;3.58;100.00;95340.94;1027801;28;20324;-52
2021/03/12 00:21:44;;;;;;;0.70;0.50;;;;;;;3.59;100.00;95346.97;1027824;28;20388;-51
2021/03/12 00:22:15;;;;;;;1.88;0.60;;;;;;;3.57;100.00;95360.00;1023730;29;20294;-51
2021/03/12 00:22:46;;;;;;;1.42;0.70;;;;;;;3.60;100.00;95346.88;1031855;28;20153;-50
2021/03/12 00:23:16;;;;;;;1.58;0.60;;;;;;;3.59;100.00;95350.41;1027951;28;20073;-52
2021/03/12 00:23:47;;;;;;;2.03;0.60;;;;;;;3.59;100.00;95352.16;1019731;29;20094;-52
2021/03/12 00:24:18;;;;;;;1.83;0.60;;;;;;;3.59;100.00;95346.97;1035359;28;20048;-50
2021/03/12 00:24:48;;;;;;;1.17;0.50;;;;;;;3.60;100.00;95354.63;1027806;28;20579;-51
2021/03/12 00:25:23;;;;;;;1.63;0.52;;;;;;;3.58;100.00;95350.47;1023805;28;20448;-51
2021/03/12 00:25:53;;;;;;;1.45;0.65;;;;;;;3.57;100.00;95356.59;1019911;29;20105;-52
2021/03/12 00:26:24;;;;;;;1.05;0.50;;;;;;;3.56;100.00;95357.50;1019627;29;20266;-52
2021/03/12 00:26:59;;;;;;;2.42;0.50;;;;;;;3.58;100.00;95347.88;1023877;28;20059;-52
2021/03/12 00:27:29;;;;;;;0.95;0.60;;;;;;;3.57;100.00;95339.28;1023800;29;20396;-52
2021/03/12 00:28:00;;;;;;;1.70;0.60;;;;;;;3.58;100.00;95338.34;1019822;29;20331;-51
2021/03/12 00:28:31;;;;;;;0.73;0.50;;;;;;;3.56;100.00;95342.78;1023592;29;20508;-52
2021/03/12 00:29:02;;;;;;;1.10;0.65;;;;;;;3.57;100.00;95335.88;1023799;28;20050;-52
2021/03/12 00:29:33;;;;;;;0.88;0.50;;;;;;;3.57;100.00;95326.34;1023858;28;20069;-52
2021/03/12 00:30:05;;;;;;;0.75;0.50;;;;;;;3.54;100.00;95323.88;1019779;29;20310;-52
2021/03/12 00:30:36;;;;;;;2.00;0.60;;;;;;;3.54;100.00;95320.47;1023674;28;20370;-51
2021/03/12 00:31:06;;;;;;;2.20;0.70;;;;;;;3.55;100.00;95329.91;1027873;28;20242;-51
2021/03/12 00:31:37;;;;;;;1.42;0.60;;;;;;;3.55;100.00;95317.81;1027805;28;20018;-52
2021/03/12 00:32:08;;;;;;;2.20;0.73;;;;;;;3.56;100.00;95326.41;1019969;29;20095;-51
2021/03/12 00:32:39;;;;;;;0.95;0.60;;;;;;;3.56;100.00;95313.44;1023642;28;20012;-51
2021/03/12 00:33:10;;;;;;;1.23;0.57;;;;;;;3.56;100.00;95331.59;1023779;29;20015;-51
2021/03/12 00:33:40;;;;;;;0.88;0.52;;;;;;;3.56;100.00;95329.81;1027567;28;20101;-53
2021/03/12 00:34:11;;;;;;;2.40;0.57;;;;;;;3.55;100.00;95340.25;1027812;28;20066;-52
2021/03/12 00:34:42;;;;;;;2.63;0.65;;;;;;;3.57;100.00;95325.50;1023601;29;20247;-52
2021/03/12 00:35:14;;;;;;;1.10;0.50;;;;;;;3.57;100.00;95330.69;1019825;29;20374;-52
2021/03/12 00:35:45;;;;;;;2.70;0.60;;;;;;;3.56;100.00;95327.22;1019648;29;20723;-52
2021/03/12 00:36:15;;;;;;;1.23;0.60;;;;;;;3.56;100.00;95340.19;1019956;29;20252;-51
2021/03/12 00:36:46;;;;;;;0.75;0.50;;;;;;;3.56;100.00;95331.59;1023612;29;20289;-52
2021/03/12 00:37:17;;;;;;;2.30;0.60;;;;;;;3.55;100.00;95330.75;1015935;29;20044;-51
2021/03/12 00:37:47;;;;;;;1.40;0.50;;;;;;;3.53;100.00;95335.19;1019824;29;20462;-52
2021/03/12 00:38:18;;;;;;;1.17;0.63;;;;;;;3.53;100.00;95348.13;1023791;28;20027;-52
2021/03/12 00:38:49;;;;;;;1.15;0.60;;;;;;;3.52;100.00;95327.50;1023702;28;20405;-52
2021/03/12 00:39:20;;;;;;;0.68;0.50;;;;;;;3.52;100.00;95332.66;1019790;28;20079;-52
2021/03/12 00:39:51;;;;;;;3.58;0.70;;;;;;;3.45;100.00;95330.41;1019770;29;20008;-51
2021/03/12 00:40:25;;;;;;;1.17;0.50;;;;;;;3.46;100.00;95329.47;1023736;29;20760;-50
2021/03/12 00:40:58;;;;;;;1.13;0.68;;;;;;;3.46;100.00;95331.25;1027556;28;20066;-50
2021/03/12 00:41:28;;;;;;;1.60;0.52;;;;;;;3.49;100.00;95328.47;1015909;29;20793;-51
2021/03/12 00:41:59;;;;;;;1.27;0.60;;;;;;;3.51;100.00;95331.84;1027763;28;20250;-53
2021/03/12 00:42:30;;;;;;;0.98;0.60;;;;;;;3.50;100.00;95330.16;1019829;29;20054;-51
2021/03/12 00:43:01;;;;;;;0.90;0.63;;;;;;;3.51;100.00;95342.19;1019608;29;20501;-52
2021/03/12 00:43:32;;;;;;;2.42;0.60;;;;;;;3.50;100.00;95336.16;1031588;28;20566;-52
2021/03/12 00:44:03;;;;;;;1.27;0.60;;;;;;;3.49;100.00;95350.03;1027664;28;20034;-52
2021/03/12 00:44:34;;;;;;;1.17;0.60;;;;;;;3.50;100.00;95333.56;1023755;28;20255;-52
2021/03/12 00:45:06;;;;;;;1.55;0.50;;;;;;;3.50;100.00;95340.50;1027635;28;20051;-52
2021/03/12 00:45:37;;;;;;;1.90;0.70;;;;;;;3.49;100.00;95331.06;1023688;28;20271;-51
2021/03/12 00:46:09;;;;;;;2.83;0.68;;;;;;;3.50;100.00;95337.91;1023703;28;20262;-51
2021/03/12 00:46:40;;;;;;;0.50;0.50;;;;;;;3.51;100.00;95355.16;1019741;28;20287;-52
2021/03/12 00:47:11;;;;;;;1.33;0.52;;;;;;;3.52;100.00;95340.44;1027679;28;20301;-51
2021/03/12 00:47:42;;;;;;;1.00;0.43;;;;;;;3.52;100.00;95349.03;1023857;28;20026;-51
2021/03/12 00:48:13;;;;;;;2.10;0.60;;;;;;;3.52;100.00;95346.44;1023665;29;20109;-52
2021/03/12 00:48:44;;;;;;;0.88;0.60;;;;;;;3.52;100.00;95351.63;1031763;28;20754;-50
2021/03/12 00:49:15;;;;;;;1.02;0.52;;;;;;;3.54;100.00;95347.19;1027632;28;20098;-52
2021/03/12 00:49:46;;;;;;;1.27;0.57;;;;;;;3.54;100.00;95343.78;1019759;29;20024;-50
2021/03/12 00:50:22;;;;;;;2.33;0.80;;;;;;;3.53;100.00;95347.28;1023724;28;20059;-51
2021/03/12 00:50:53;;;;;;;1.33;0.60;;;;;;;3.50;100.00;95341.34;1019809;29;20024;-51
2021/03/12 00:51:24;;;;;;;1.35;0.60;;;;;;;3.53;100.00;95344.69;1027500;28;20723;-51
2021/03/12 00:51:54;;;;;;;0.90;0.70;;;;;;;3.52;100.00;95337.84;1019802;29;20536;-51
2021/03/12 00:52:25;;;;;;;1.15;0.55;;;;;;;3.54;100.00;95344.59;1027723;28;20018;-49
2021/03/12 00:52:56;;;;;;;1.42;0.60;;;;;;;3.55;100.00;95333.34;1023768;29;20027;-52
2021/03/12 00:53:27;;;;;;;1.30;0.50;;;;;;;3.54;100.00;95334.25;1019597;29;20019;-52
2021/03/12 00:53:58;;;;;;;2.17;0.60;;;;;;;3.54;100.00;95342.03;1023586;29;20492;-52
2021/03/12 00:54:28;;;;;;;1.35;0.52;;;;;;;3.54;100.00;95334.25;1027768;28;20057;-50
2021/03/12 00:54:59;;;;;;;2.50;0.60;;;;;;;3.50;100.00;95341.34;1031727;28;20470;-50
2021/03/12 00:55:31;;;;;;;1.33;0.60;;;;;;;3.49;100.00;95341.41;1023511;29;20023;-51
2021/03/12 00:56:01;;;;;;;0.70;0.70;;;;;;;3.45;100.00;95322.63;1015925;29;20450;-51
2021/03/12 00:56:32;;;;;;;1.77;0.73;;;;;;;3.48;100.00;95342.34;1016499;29;20261;-51
2021/03/12 00:57:03;;;;;;;0.90;0.60;;;;;;;3.48;100.00;95324.22;1026688;28;20058;-51
2021/03/12 00:57:34;;;;;;;1.85;0.70;;;;;;;3.49;100.00;95333.66;1023133;29;20020;-51
2021/03/12 00:58:05;;;;;;;1.35;0.50;;;;;;;3.47;100.00;95336.34;1019342;29;20291;-52
2021/03/12 00:58:36;;;;;;;0.63;0.50;;;;;;;3.37;100.00;95323.94;1019217;29;20261;-52
2021/03/12 00:59:07;;;;;;;2.22;0.73;;;;;;;3.46;100.00;95339.00;1022732;29;20310;-51
2021/03/12 00:59:37;;;;;;;0.55;0.50;;;;;;;3.47;100.00;95338.94;1019387;29;20020;-52
2021/03/12 01:00:09;;;;;;;1.15;0.60;;;;;;;3.48;100.00;95334.56;1024046;29;20027;-52
2021/03/12 01:00:40;;;;;;;0.73;0.60;;;;;;;3.49;100.00;95338.81;1032029;28;20027;-51
2021/03/12 01:01:11;;;;;;;1.67;0.60;;;;;;;3.49;100.00;95334.50;1027993;28;20268;-52
2021/03/12 01:01:41;;;;;;;1.40;0.57;;;;;;;3.52;100.00;95337.84;1027767;29;20020;-52
2021/03/12 01:02:12;;;;;;;0.75;0.45;;;;;;;3.52;100.00;95343.84;1027885;29;20054;-51
2021/03/12 01:02:43;;;;;;;1.83;0.50;;;;;;;3.53;100.00;95345.53;1019996;29;20055;-51
2021/03/12 01:03:14;;;;;;;1.30;0.50;;;;;;;3.55;100.00;95341.13;1019770;29;20262;-51
2021/03/12 01:03:45;;;;;;;0.38;0.35;;;;;;;3.57;100.00;95331.50;1023435;28;20034;-51
2021/03/12 01:04:15;;;;;;;1.45;0.60;;;;;;;3.57;100.00;95347.06;1023757;28;20421;-51
2021/03/12 01:04:46;;;;;;;0.60;0.50;;;;;;;3.57;100.00;95344.47;1023690;29;20023;-51
2021/03/12 01:05:17;;;;;;;1.00;0.60;;;;;;;3.55;100.00;95335.94;1015806;29;20035;-50
2021/03/12 01:05:48;;;;;;;0.55;0.45;;;;;;;3.56;100.00;95335.00;1019582;28;20015;-51
2021/03/12 01:06:19;;;;;;;1.50;0.75;;;;;;;3.54;100.00;95331.66;1023760;28;20346;-51
2021/03/12 01:06:50;;;;;;;0.93;0.50;;;;;;;3.55;100.00;95320.41;1019577;29;20528;-51
2021/03/12 01:07:20;;;;;;;2.80;0.80;;;;;;;3.57;100.00;95331.50;1027523;28;20058;-51
2021/03/12 01:07:51;;;;;;;1.10;0.60;;;;;;;3.58;100.00;95330.56;1019608;29;20055;-50
2021/03/12 01:08:22;;;;;;;1.05;0.60;;;;;;;3.57;100.00;95334.09;1027557;28;20046;-52
2021/03/12 01:08:53;;;;;;;0.63;0.40;;;;;;;3.57;100.00;95338.44;1015873;29;20020;-50
2021/03/12 01:09:24;;;;;;;1.70;0.60;;;;;;;3.57;100.00;95321.16;1019652;29;20031;-51
2021/03/12 01:09:54;;;;;;;1.08;0.60;;;;;;;3.61;100.00;95327.84;1023689;29;20029;-51
2021/03/12 01:10:25;;;;;;;3.22;0.90;;;;;;;3.61;100.00;95320.06;1023602;29;20027;-51
2021/03/12 01:10:56;;;;;;;0.68;0.52;;;;;;;3.61;100.00;95337.38;1023634;29;20042;-50
2021/03/12 01:11:27;;;;;;;1.48;0.77;;;;;;;3.63;100.00;95335.53;1023697;28;20034;-52
2021/03/12 01:11:57;;;;;;;1.33;0.73;;;;;;;3.62;100.00;95333.84;1019710;29;20042;-50
2021/03/12 01:12:28;;;;;;;1.38;0.73;;;;;;;3.64;100.00;95338.03;1019400;29;20032;-52
2021/03/12 01:12:59;;;;;;;0.77;0.50;;;;;;;3.65;100.00;95346.66;1023615;28;20027;-52
2021/03/12 01:13:30;;;;;;;3.70;1.13;;;;;;;3.67;100.00;95337.88;1027460;28;20034;-51
2021/03/12 01:14:00;;;;;;;1.80;0.68;;;;;;;3.64;100.00;95338.03;1027510;28;20027;-51
2021/03/12 01:14:31;;;;;;;1.08;0.65;;;;;;;3.60;100.00;95323.56;1027476;28;20030;-49
2021/03/12 01:15:04;;;;;;;1.10;0.40;;;;;;;3.65;100.00;95324.16;1031617;28;20070;-51
2021/03/12 01:15:35;;;;;;;3.20;0.93;;;;;;;3.64;100.00;95332.88;1035618;28;20092;-51
2021/03/12 01:16:06;;;;;;;1.45;0.50;;;;;;;3.63;100.00;95331.19;1027779;28;20756;-51
2021/03/12 01:16:37;;;;;;;1.77;0.60;;;;;;;3.63;100.00;95336.34;1023541;28;20279;-50
2021/03/12 01:17:07;;;;;;;2.40;0.65;;;;;;;3.63;100.00;95335.53;1019765;29;20322;-51
2021/03/12 01:17:38;;;;;;;1.95;0.70;;;;;;;3.62;100.00;95326.94;1023643;29;20019;-51
2021/03/12 01:18:10;;;;;;;1.00;0.60;;;;;;;3.63;100.00;95327.75;1023775;29;20033;-51
2021/03/12 01:18:41;;;;;;;1.02;0.52;;;;;;;3.65;100.00;95329.34;1027397;28;20038;-51
2021/03/12 01:19:12;;;;;;;1.35;0.60;;;;;;;3.64;100.00;95324.22;1015805;29;20276;-51
2021/03/12 01:19:42;;;;;;;2.15;0.70;;;;;;;3.65;100.00;95326.75;1019627;29;20622;-51
2021/03/12 01:20:16;;;;;;;1.73;0.60;;;;;;;3.66;100.00;95325.84;1023628;28;20023;-52
2021/03/12 01:20:47;;;;;;;2.28;0.70;;;;;;;3.65;100.00;95334.53;1019511;28;20024;-50
2021/03/12 01:21:18;;;;;;;2.03;0.70;;;;;;;3.67;100.00;95327.50;1023622;28;20736;-51
2021/03/12 01:21:49;;;;;;;2.30;0.63;;;;;;;3.67;100.00;95331.84;1027617;28;20054;-51
2021/03/12 01:22:19;;;;;;;1.05;0.60;;;;;;;3.64;100.00;95340.63;1027730;28;20030;-51
2021/03/12 01:22:51;;;;;;;2.55;0.70;;;;;;;3.66;100.00;95343.97;1023577;28;20050;-52
2021/03/12 01:23:22;;;;;;;1.95;0.70;;;;;;;3.64;100.00;95345.81;1019698;29;20028;-50
2021/03/12 01:23:53;;;;;;;1.55;0.70;;;;;;;3.68;100.00;95346.50;1019620;28;20654;-51
2021/03/12 01:24:24;;;;;;;2.45;1.00;;;;;;;3.66;100.00;95340.53;1027597;28;20270;-51
2021/03/12 01:24:54;;;;;;;1.58;0.70;;;;;;;3.65;100.00;95350.06;1015594;29;20485;-52
2021/03/12 01:25:28;;;;;;;2.95;0.63;;;;;;;3.65;100.00;95349.22;1031553;28;20484;-51
2021/03/12 01:25:59;;;;;;;1.55;0.80;;;;;;;3.67;100.00;95342.22;1023617;28;20043;-49
2021/03/12 01:26:30;;;;;;;3.03;0.80;;;;;;;3.67;100.00;95350.00;1023473;29;20731;-51
2021/03/12 01:27:00;;;;;;;3.40;0.73;;;;;;;3.65;100.00;95342.28;1015636;29;20028;-52
2021/03/12 01:27:38;;;;;;;1.50;0.50;;;;;;;3.68;100.00;95351.69;1019642;29;20512;-50
2021/03/12 01:28:09;;;;;;;2.55;0.60;;;;;;;3.70;100.00;95342.06;1023701;28;20385;-52
2021/03/12 01:28:40;;;;;;;0.63;0.40;;;;;;;3.73;100.00;95341.06;1027520;28;20262;-52
2021/03/12 01:29:12;;;;;;;2.00;0.60;;;;;;;3.74;100.00;95337.56;1015761;29;20614;-51
2021/03/12 01:29:43;;;;;;;1.23;0.70;;;;;;;3.73;100.00;95325.50;1027683;28;20058;-50
2021/03/12 01:30:25;;;;;;;1.08;0.60;;;;;;;3.74;100.00;95340.16;1027730;28;20333;-51
2021/03/12 01:30:55;;;;;;;3.53;0.82;;;;;;;3.73;100.00;95335.88;1023551;29;20569;-50
2021/03/12 01:31:26;;;;;;;0.85;0.60;;;;;;;3.75;100.00;95342.63;1023607;28;20318;-52
2021/03/12 01:31:57;;;;;;;2.25;1.23;;;;;;;3.77;100.00;95327.00;1019641;29;20024;-48
2021/03/12 01:32:28;;;;;;;2.08;0.60;;;;;;;3.76;100.00;95328.78;1023523;29;20032;-52
2021/03/12 01:32:58;;;;;;;2.35;0.70;;;;;;;3.73;100.00;95346.22;1027439;28;20118;-50
2021/03/12 01:33:29;;;;;;;2.30;0.68;;;;;;;3.76;100.00;95354.69;1023555;28;20432;-49
2021/03/12 01:34:00;;;;;;;0.90;0.60;;;;;;;3.77;100.00;95345.97;1023461;28;20047;-50
2021/03/12 01:34:32;;;;;;;3.38;0.90;;;;;;;3.77;100.00;95335.63;1015713;29;20038;-50
2021/03/12 01:35:03;;;;;;;2.10;0.70;;;;;;;3.76;100.00;95340.91;1011703;29;20033;-49
2021/03/12 01:35:35;;;;;;;1.00;0.43;;;;;;;3.74;100.00;95333.22;1020117;28;20788;-52
2021/03/12 01:36:06;;;;;;;1.35;0.70;;;;;;;3.79;100.00;95331.22;1020754;28;20771;-52
2021/03/12 01:36:36;;;;;;;2.33;0.60;;;;;;;3.78;100.00;95319.16;1027540;28;20277;-51
2021/03/12 01:37:07;;;;;;;1.83;0.60;;;;;;;3.77;100.00;95332.19;1027492;28;20273;-51
2021/03/12 01:37:38;;;;;;;1.75;0.70;;;;;;;3.76;100.00;95326.19;1023635;28;20444;-51
2021/03/12 01:38:09;;;;;;;1.63;0.65;;;;;;;3.75;100.00;95331.44;1023630;29;20027;-50
2021/03/12 01:38:39;;;;;;;1.67;0.68;;;;;;;3.76;100.00;95327.94;1023661;28;20374;-51
2021/03/12 01:39:10;;;;;;;1.10;0.60;;;;;;;3.75;100.00;95337.44;1027514;28;20405;-50
2021/03/12 01:39:41;;;;;;;1.77;0.57;;;;;;;3.75;100.00;95334.88;1015650;29;20024;-50
2021/03/12 01:40:14;;;;;;;1.80;0.55;;;;;;;3.74;100.00;95347.94;1019663;29;20122;-51
2021/03/12 01:40:47;;;;;;;1.85;0.82;;;;;;;3.72;100.00;95335.03;1023522;29;20025;-50
2021/03/12 01:41:17;;;;;;;2.78;0.60;;;;;;;3.69;100.00;95330.84;1011705;29;20260;-49
2021/03/12 01:41:48;;;;;;;1.15;0.70;;;;;;;3.69;100.00;95340.38;1019512;29;20769;-50
2021/03/12 01:42:19;;;;;;;1.05;0.60;;;;;;;3.66;100.00;95338.78;1019626;29;20126;-51
2021/03/12 01:42:51;;;;;;;0.82;0.60;;;;;;;3.66;100.00;95330.16;1023667;29;20728;-51
2021/03/12 01:43:21;;;;;;;1.50;0.60;;;;;;;3.69;100.00;95340.38;1019586;29;20082;-50
2021/03/12 01:43:52;;;;;;;1.02;0.57;;;;;;;3.72;100.00;95339.38;1015435;29;20324;-51
2021/03/12 01:44:23;;;;;;;0.95;0.52;;;;;;;3.73;100.00;95335.88;1015644;29;20183;-51
2021/03/12 01:44:54;;;;;;;1.65;0.68;;;;;;;3.73;100.00;95338.47;1015628;29;20123;-50
2021/03/12 01:45:29;;;;;;;2.22;0.68;;;;;;;3.71;100.00;95338.53;1023470;28;20118;-51
2021/03/12 01:45:59;;;;;;;1.55;0.60;;;;;;;3.69;100.00;95337.78;1023557;28;20251;-51
2021/03/12 01:46:30;;;;;;;1.42;0.90;;;;;;;3.67;100.00;95337.03;1019615;29;20758;-50
2021/03/12 01:47:01;;;;;;;1.13;0.52;;;;;;;3.69;100.00;95369.69;1023643;28;20090;-51
2021/03/12 01:47:31;;;;;;;2.28;0.73;;;;;;;3.72;100.00;95357.50;1031426;28;20484;-50
2021/03/12 01:48:04;;;;;;;0.98;0.50;;;;;;;3.71;100.00;95338.53;1027541;28;20027;-51
2021/03/12 01:48:34;;;;;;;1.25;0.52;;;;;;;3.72;100.00;95340.22;1027605;28;20023;-50
2021/03/12 01:49:05;;;;;;;3.05;0.57;;;;;;;3.72;100.00;95341.97;1019594;29;20363;-52
2021/03/12 01:49:36;;;;;;;1.83;0.50;;;;;;;3.73;100.00;95325.50;1019545;29;20028;-50
2021/03/12 01:50:08;;;;;;;1.15;0.50;;;;;;;3.72;100.00;95344.56;1019650;29;20016;-51
2021/03/12 01:50:40;;;;;;;1.23;0.52;;;;;;;3.74;100.00;95351.34;1019607;29;20028;-51
2021/03/12 01:51:11;;;;;;;1.40;0.60;;;;;;;3.76;100.00;95372.00;1023543;28;20709;-51
2021/03/12 01:51:42;;;;;;;2.03;1.10;;;;;;;3.77;100.00;95356.34;1020093;29;20255;-51
2021/03/12 01:52:13;;;;;;;2.97;1.65;;;;;;;3.78;100.00;95360.63;1024086;28;20259;-50
2021/03/12 01:52:44;;;;;;;1.85;0.57;;;;;;;3.78;100.00;95341.66;1015618;29;20016;-51
2021/03/12 01:53:16;;;;;;;0.77;0.52;;;;;;;3.78;100.00;95344.25;1027472;28;20501;-50
2021/03/12 01:53:46;;;;;;;1.70;0.60;;;;;;;3.80;100.00;95363.13;1023237;28;20027;-51
2021/03/12 01:54:17;;;;;;;1.67;0.60;;;;;;;3.76;100.00;95349.50;1027569;28;20262;-49
2021/03/12 01:54:48;;;;;;;3.50;0.55;;;;;;;3.79;100.00;95351.94;1023468;29;20032;-52
2021/03/12 01:55:28;;;;;;;1.95;0.60;;;;;;;3.80;100.00;95363.13;1023561;28;20501;-51
2021/03/12 01:55:59;;;;;;;1.45;0.60;;;;;;;3.80;100.00;95357.97;1027453;28;20113;-51
2021/03/12 01:56:29;;;;;;;1.73;0.80;;;;;;;3.78;100.00;95352.03;1023619;29;20054;-50
2021/03/12 01:57:01;;;;;;;1.10;0.50;;;;;;;3.79;100.00;95369.22;1026130;28;20480;-51
2021/03/12 01:57:34;;;;;;;1.58;0.65;;;;;;;3.80;100.00;95347.59;1023609;28;20015;-51
2021/03/12 01:58:05;;;;;;;1.27;0.63;;;;;;;3.84;100.00;95360.28;1024129;28;20247;-52
2021/03/12 01:58:36;;;;;;;1.20;0.60;;;;;;;3.83;100.00;95357.78;1023610;28;20311;-51
2021/03/12 01:59:06;;;;;;;1.58;0.50;;;;;;;3.82;100.00;95361.28;1023533;29;20254;-49
2021/03/12 01:59:37;;;;;;;3.25;0.77;;;;;;;3.82;100.00;95361.28;1019632;29;20115;-51
2021/03/12 02:00:09;;;;;;;1.30;0.60;;;;;;;3.73;100.00;95341.06;1027382;28;20065;-51
2021/03/12 02:00:39;;;;;;;1.02;0.50;;;;;;;3.84;100.00;95354.28;1023588;29;20499;-52
2021/03/12 02:01:10;;;;;;;0.60;0.40;;;;;;;3.84;100.00;95344.75;1015700;29;20343;-51
2021/03/12 02:01:41;;;;;;;1.60;0.57;;;;;;;3.81;100.00;95339.75;1027636;28;20015;-51
2021/03/12 02:02:12;;;;;;;1.75;0.60;;;;;;;3.85;100.00;95335.22;1023402;28;20031;-52
2021/03/12 02:02:42;;;;;;;5.03;0.77;;;;;;;3.84;100.00;95334.38;1027442;28;20023;-52
2021/03/12 02:03:15;;;;;;;1.60;0.60;;;;;;;3.80;100.00;95348.41;1019530;29;20031;-52
2021/03/12 02:03:46;;;;;;;1.20;0.63;;;;;;;3.81;100.00;95349.25;1019492;29;20024;-51
2021/03/12 02:04:16;;;;;;;0.85;0.65;;;;;;;3.79;100.00;95344.16;1016335;29;20695;-51
2021/03/12 02:04:47;;;;;;;0.77;0.50;;;;;;;3.82;100.00;95335.38;1023570;29;20071;-52
2021/03/12 02:05:18;;;;;;;3.28;0.65;;;;;;;3.82;100.00;95356.13;1023594;28;20120;-51
2021/03/12 02:05:49;;;;;;;0.70;0.50;;;;;;;3.84;100.00;95338.72;1015614;29;20017;-50
2021/03/12 02:06:20;;;;;;;1.25;0.60;;;;;;;3.85;100.00;95343.00;1019540;29;20079;-51
2021/03/12 02:06:51;;;;;;;1.58;0.70;;;;;;;3.82;100.00;95353.53;1023599;28;20875;-52
2021/03/12 02:07:23;;;;;;;1.27;0.50;;;;;;;3.84;100.00;95354.28;1027589;28;20453;-50
2021/03/12 02:07:53;;;;;;;2.13;0.73;;;;;;;3.85;100.00;95361.16;1019538;29;20795;-52
2021/03/12 02:08:24;;;;;;;2.00;0.70;;;;;;;3.84;100.00;95342.16;1027846;28;20268;-50
2021/03/12 02:08:55;;;;;;;1.13;0.57;;;;;;;3.86;100.00;95357.63;1027543;28;20027;-53
2021/03/12 02:09:26;;;;;;;1.23;0.50;;;;;;;3.86;100.00;95368.81;1027560;28;20027;-50
2021/03/12 02:09:56;;;;;;;1.35;0.70;;;;;;;3.89;100.00;95347.09;1027657;28;20030;-52
2021/03/12 02:10:27;;;;;;;2.85;0.73;;;;;;;3.86;100.00;95342.91;1023909;28;20070;-51
2021/03/12 02:10:58;;;;;;;1.02;0.60;;;;;;;3.88;100.00;95337.63;1024407;28;20020;-52
2021/03/12 02:11:29;;;;;;;3.25;0.60;;;;;;;3.88;100.00;95340.22;1028302;28;20285;-50
2021/03/12 02:12:14;;;;;;;1.75;0.60;;;;;;;3.90;100.00;95348.75;1032353;28;20480;-51
2021/03/12 02:13:04;;;;;;;1.10;0.50;;;;;;;3.93;100.00;95342.59;1024240;29;20023;-51
2021/03/12 02:13:46;;;;;;;1.67;0.50;;;;;;;3.94;100.00;95324.38;1020695;29;20272;-51
2021/03/12 02:14:21;;;;;;;0.85;0.50;;;;;;;3.96;100.00;95405.47;1024450;28;20035;-51
2021/03/12 02:14:59;;;;;;;1.77;0.60;;;;;;;3.96;100.00;95365.72;1020181;28;20395;-52
2021/03/12 02:15:43;;;;;;;1.35;0.60;;;;;;;4.03;100.00;95343.75;1028169;28;20782;-52
2021/03/12 02:16:20;;;;;;;1.55;0.65;;;;;;;4.03;100.00;95347.16;1024241;29;20343;-51
2021/03/12 02:16:56;;;;;;;0.65;0.40;;;;;;;4.05;100.00;95347.09;1028179;28;20374;-51
2021/03/12 02:17:29;;;;;;;1.13;0.60;;;;;;;4.04;100.00;95354.03;1024288;28;20313;-52
2021/03/12 02:18:06;;;;;;;2.03;0.60;;;;;;;4.04;100.00;95332.47;1020338;29;20799;-52
2021/03/12 02:18:50;;;;;;;0.95;0.60;;;;;;;4.02;100.00;95331.72;1020299;29;20279;-51
2021/03/12 02:19:40;;;;;;;2.42;0.63;;;;;;;4.05;100.00;95341.91;1020326;29;20321;-50
2021/03/12 02:20:29;;;;;;;2.50;0.40;;;;;;;4.03;100.00;95341.97;1023920;29;20311;-52
2021/03/12 02:21:07;;;;;;;0.75;0.50;;;;;;;4.02;100.00;95344.69;1024136;29;20033;-52
2021/03/12 02:21:48;;;;;;;1.75;0.82;;;;;;;4.01;100.00;95338.66;1028259;28;20304;-52
2021/03/12 02:22:18;;;;;;;1.50;0.70;;;;;;;3.99;100.00;95331.88;1028300;28;20643;-51
2021/03/12 02:22:51;;;;;;;2.13;0.70;;;;;;;3.98;100.00;95322.41;1024281;29;20270;-51
2021/03/12 02:23:41;;;;;;;1.02;0.70;;;;;;;3.90;100.00;95322.84;1020139;29;20020;-49
2021/03/12 02:24:27;;;;;;;4.30;0.88;;;;;;;3.92;100.00;95341.72;1016396;29;20803;-52
2021/03/12 02:25:00;;;;;;;1.92;0.90;;;;;;;3.88;100.00;95346.25;1021016;29;20030;-51
2021/03/12 02:25:31;;;;;;;3.25;0.60;;;;;;;3.93;100.00;95335.66;1024140;29;20290;-52
2021/03/12 02:26:06;;;;;;;2.35;0.77;;;;;;;3.93;100.00;95340.00;1024231;29;20261;-51
2021/03/12 02:27:06;;;;;;;2.00;0.70;;;;;;;3.96;100.00;95329.44;1024220;29;20030;-49
2021/03/12 02:27:36;;;;;;;2.13;0.68;;;;;;;3.95;100.00;95338.16;1020170;29;20287;-52
2021/03/12 02:28:07;;;;;;;3.42;0.50;;;;;;;3.96;100.00;95332.91;1020232;29;20388;-52
2021/03/12 02:28:38;;;;;;;2.72;0.75;;;;;;;3.91;100.00;95334.91;1024302;29;20027;-51
2021/03/12 02:29:12;;;;;;;3.63;0.80;;;;;;;3.89;100.00;95336.72;1024194;29;20481;-51
2021/03/12 02:29:52;;;;;;;1.38;0.70;;;;;;;3.85;100.00;95335.22;1024228;29;20407;-52
2021/03/12 02:30:23;;;;;;;1.80;0.77;;;;;;;3.86;100.00;95334.28;1028297;28;20302;-52
2021/03/12 02:30:55;;;;;;;2.63;0.70;;;;;;;3.85;100.00;95348.19;1020357;28;20260;-52